Time;durP1;ratioP1;P1;durP2;ratioP2;P2;SDS_P1;SDS_P2;PMS_P1;PMS_P2;Temp;Humidity;BMP_temperature;BMP_pressure;BME280_temperature;BME280_humidity;BME280_pressure;Samples;Min_cycle;Max_cycle;Signal;HPM_P1;HPM_P2
2022/01/29 00:00:13;;;;;;;5.30;4.80;;;;;;;3.52;81.36;99960.97;5072696;28;20208;-67
2022/01/29 00:02:41;;;;;;;4.23;3.97;;;;;;;3.49;80.93;99958.44;5069616;28;20295;-67
2022/01/29 00:05:09;;;;;;;4.80;4.40;;;;;;;3.41;81.14;99967.66;5069933;28;20869;-67
2022/01/29 00:07:38;;;;;;;4.50;4.20;;;;;;;3.33;80.77;99969.28;5067138;28;20294;-67
2022/01/29 00:10:07;;;;;;;4.57;4.27;;;;;;;3.31;80.17;99966.72;5071255;28;20208;-67
2022/01/29 00:12:35;;;;;;;5.23;4.83;;;;;;;3.29;80.56;99963.34;5071621;28;20568;-67
2022/01/29 00:15:03;;;;;;;4.83;4.50;;;;;;;3.33;80.24;99966.75;5071375;28;20283;-67
2022/01/29 00:17:29;;;;;;;4.87;4.53;;;;;;;3.18;80.38;99970.84;5071777;28;20210;-67
2022/01/29 00:19:56;;;;;;;4.93;4.63;;;;;;;3.28;80.33;99970.91;5072544;28;20295;-67
2022/01/29 00:22:24;;;;;;;5.13;4.73;;;;;;;3.28;80.35;99970.91;5070580;28;20462;-67
2022/01/29 00:24:51;;;;;;;5.57;5.07;;;;;;;3.33;79.92;99979.41;5070734;28;20203;-67
2022/01/29 00:27:20;;;;;;;4.67;4.37;;;;;;;3.31;80.15;99974.31;5070174;28;20255;-67
2022/01/29 00:29:48;;;;;;;5.13;4.77;;;;;;;3.29;80.40;99982.75;5071208;28;20222;-68
2022/01/29 00:32:15;;;;;;;6.30;4.27;;;;;;;3.20;81.00;99987.75;5070266;28;20284;-67
2022/01/29 00:34:42;;;;;;;6.57;5.40;;;;;;;3.08;81.84;99974.13;5070816;28;20751;-67
2022/01/29 00:37:10;;;;;;;4.47;4.20;;;;;;;3.04;82.50;99980.00;5069862;28;20240;-67
2022/01/29 00:39:37;;;;;;;4.57;4.33;;;;;;;2.94;83.06;99964.72;5072570;28;20664;-67
2022/01/29 00:42:05;;;;;;;4.77;4.37;;;;;;;3.08;83.14;99981.72;5072342;28;20216;-67
2022/01/29 00:44:32;;;;;;;5.23;4.73;;;;;;;3.14;83.11;99979.25;5071342;28;20231;-67
2022/01/29 00:47:00;;;;;;;5.33;4.93;;;;;;;3.12;82.59;99978.41;5072550;28;20805;-67
2022/01/29 00:49:27;;;;;;;5.33;4.93;;;;;;;3.13;82.53;99977.53;5070949;28;20192;-67
2022/01/29 00:51:54;;;;;;;5.57;4.63;;;;;;;3.04;82.69;99972.41;5072606;28;20203;-67
2022/01/29 00:54:21;;;;;;;6.23;5.67;;;;;;;2.93;83.04;99979.06;5072483;28;20203;-67
2022/01/29 00:56:47;;;;;;;5.27;4.80;;;;;;;2.84;83.93;99973.91;5071880;28;20741;-68
2022/01/29 00:59:14;;;;;;;5.23;4.83;;;;;;;2.74;85.10;99966.22;5072209;28;20283;-67
2022/01/29 01:01:41;;;;;;;5.70;5.20;;;;;;;2.63;85.47;99966.09;5070181;28;20306;-68
2022/01/29 01:04:10;;;;;;;6.10;5.10;;;;;;;2.64;85.82;99962.72;5070192;28;20291;-67
2022/01/29 01:06:36;;;;;;;4.87;4.47;;;;;;;2.61;85.59;99975.34;5069812;28;20196;-67
2022/01/29 01:09:03;;;;;;;5.20;4.67;;;;;;;2.50;85.79;99961.72;5071999;28;20287;-67
2022/01/29 01:11:30;;;;;;;4.17;3.87;;;;;;;2.22;86.94;99964.78;5072048;28;20283;-68
2022/01/29 01:13:57;;;;;;;5.47;4.00;;;;;;;2.10;87.93;99970.53;5072088;28;20291;-67
2022/01/29 01:16:24;;;;;;;5.07;4.63;;;;;;;1.99;88.91;99957.75;5071868;28;20662;-68
2022/01/29 01:18:51;;;;;;;4.73;4.43;;;;;;;1.96;89.54;99954.31;5071775;28;20200;-67
2022/01/29 01:21:19;;;;;;;4.57;4.20;;;;;;;1.95;89.65;99958.53;5071331;28;20714;-68
2022/01/29 01:23:46;;;;;;;5.17;4.83;;;;;;;1.95;89.84;99956.00;5069867;28;20239;-68
2022/01/29 01:26:13;;;;;;;4.63;4.27;;;;;;;1.90;89.95;99946.66;5071749;28;20283;-67
2022/01/29 01:28:40;;;;;;;4.53;4.23;;;;;;;1.90;89.82;99962.69;5071167;28;20291;-67
2022/01/29 01:31:07;;;;;;;4.80;4.50;;;;;;;1.94;89.29;99954.28;5071817;28;20200;-67
2022/01/29 01:33:34;;;;;;;5.83;4.93;;;;;;;1.87;89.15;99952.53;5071274;28;20664;-67
2022/01/29 01:36:04;;;;;;;4.77;4.17;;;;;;;1.89;88.84;99948.34;5071149;28;20563;-67
2022/01/29 01:38:40;;;;;;;4.10;3.90;;;;;;;1.90;88.72;99939.94;5070123;28;20204;-67
2022/01/29 01:41:11;;;;;;;4.73;4.40;;;;;;;1.69;88.90;99926.13;5070583;28;20208;-67
2022/01/29 01:43:37;;;;;;;5.70;5.10;;;;;;;1.88;89.23;99949.16;5070674;28;20287;-67
2022/01/29 01:46:04;;;;;;;4.90;4.43;;;;;;;1.93;89.25;99939.97;5071148;28;20679;-67
2022/01/29 01:48:31;;;;;;;5.87;4.77;;;;;;;1.96;89.09;99937.47;5071699;28;20219;-68
2022/01/29 01:50:59;;;;;;;5.80;5.40;;;;;;;2.00;88.81;99940.91;5070963;28;20200;-67
2022/01/29 01:53:26;;;;;;;5.73;5.33;;;;;;;2.02;88.41;99936.69;5071583;28;20306;-68
2022/01/29 01:55:54;;;;;;;5.03;4.63;;;;;;;1.96;88.57;99937.47;5071189;28;20291;-68
2022/01/29 01:58:21;;;;;;;7.67;5.10;;;;;;;1.97;88.47;99929.03;5069269;28;20201;-68
2022/01/29 02:00:48;;;;;;;5.10;4.70;;;;;;;2.04;88.43;99930.81;5068996;28;20227;-67
2022/01/29 02:03:16;;;;;;;7.03;5.63;;;;;;;2.12;88.80;99938.53;5070074;28;20294;-67
2022/01/29 02:05:44;;;;;;;6.47;5.53;;;;;;;2.17;88.42;99938.56;5071095;28;20196;-67
2022/01/29 02:08:14;;;;;;;5.30;4.80;;;;;;;2.06;88.00;99929.19;5069914;28;20298;-68
2022/01/29 02:10:44;;;;;;;4.80;4.43;;;;;;;1.97;87.88;99939.16;5070676;28;20200;-67
2022/01/29 02:13:13;;;;;;;5.27;4.77;;;;;;;1.93;88.06;99939.13;5069497;28;20246;-67
2022/01/29 02:15:40;;;;;;;5.10;4.70;;;;;;;1.92;87.88;99940.78;5068636;28;20687;-67
2022/01/29 02:18:12;;;;;;;5.10;4.63;;;;;;;1.84;88.16;99937.31;5067617;28;20687;-68
2022/01/29 02:20:40;;;;;;;5.17;4.77;;;;;;;1.86;87.99;99930.59;5068849;28;20226;-67
2022/01/29 02:23:08;;;;;;;5.70;5.20;;;;;;;1.89;87.50;99930.66;5068380;28;20192;-67
2022/01/29 02:25:39;;;;;;;5.00;4.70;;;;;;;1.88;86.95;99912.91;5067753;28;20207;-67
2022/01/29 02:28:08;;;;;;;5.37;5.03;;;;;;;2.00;86.50;99934.13;5068808;28;20652;-67
2022/01/29 02:30:37;;;;;;;5.33;3.93;;;;;;;2.03;86.32;99926.63;5068721;28;20294;-68
2022/01/29 02:33:07;;;;;;;4.67;4.37;;;;;;;2.02;86.34;99917.31;5068633;28;20196;-67
2022/01/29 02:35:37;;;;;;;5.37;4.67;;;;;;;2.07;85.90;99920.75;5068671;28;20287;-67
2022/01/29 02:38:04;;;;;;;3.90;3.60;;;;;;;2.18;85.60;99912.44;5068360;28;20652;-67
2022/01/29 02:40:35;;;;;;;3.80;3.60;;;;;;;2.26;85.32;99910.88;5067719;28;20208;-67
2022/01/29 02:43:11;;;;;;;4.10;3.80;;;;;;;2.30;84.98;99912.56;5068587;28;20265;-71
2022/01/29 02:45:38;;;;;;;7.50;4.87;;;;;;;2.24;84.77;99912.50;5069529;28;20634;-66
2022/01/29 02:48:05;;;;;;;4.80;4.47;;;;;;;2.24;84.88;99912.50;5070592;28;20287;-68
2022/01/29 02:50:32;;;;;;;9.93;4.17;;;;;;;2.29;84.81;99918.47;5067636;28;20674;-67
2022/01/29 02:52:59;;;;;;;4.07;3.70;;;;;;;2.30;84.83;99923.53;5070408;28;20623;-67
2022/01/29 02:55:28;;;;;;;4.30;4.00;;;;;;;2.31;84.81;99919.34;5069549;28;20287;-67
2022/01/29 02:57:56;;;;;;;4.40;4.10;;;;;;;2.35;84.35;99931.19;5069818;28;20648;-67
2022/01/29 03:00:24;;;;;;;4.73;4.43;;;;;;;2.35;84.03;99931.19;5068607;28;20298;-67
2022/01/29 03:02:51;;;;;;;4.53;4.07;;;;;;;2.34;83.69;99924.44;5070120;28;20227;-67
2022/01/29 03:05:18;;;;;;;3.87;3.67;;;;;;;2.38;83.59;99933.75;5070188;28;20291;-67
2022/01/29 03:07:45;;;;;;;4.60;4.20;;;;;;;2.34;83.55;99935.41;5067076;28;20620;-67
2022/01/29 03:10:12;;;;;;;4.30;4.00;;;;;;;2.30;83.23;99933.66;5070192;28;20283;-67
2022/01/29 03:12:40;;;;;;;4.40;4.07;;;;;;;2.19;83.69;99929.31;5070906;28;20192;-67
2022/01/29 03:15:10;;;;;;;4.17;3.87;;;;;;;2.17;84.53;99930.97;5072792;28;20204;-67
2022/01/29 03:17:37;;;;;;;4.40;4.10;;;;;;;2.10;84.81;99930.91;5073456;28;20282;-67
2022/01/29 03:20:05;;;;;;;4.07;3.83;;;;;;;2.03;85.09;99929.16;5073900;28;20739;-67
2022/01/29 03:22:32;;;;;;;4.80;4.40;;;;;;;1.97;85.12;99936.63;5073921;28;20232;-67
2022/01/29 03:24:59;;;;;;;4.60;4.20;;;;;;;1.88;85.44;99934.00;5073843;28;20283;-67
2022/01/29 03:27:26;;;;;;;5.13;3.83;;;;;;;1.77;85.57;99943.13;5073954;28;20287;-68
2022/01/29 03:29:53;;;;;;;4.10;3.73;;;;;;;1.74;85.65;99935.50;5073540;28;20208;-67
2022/01/29 03:32:21;;;;;;;6.43;4.20;;;;;;;1.75;85.44;99946.44;5073723;28;20222;-67
2022/01/29 03:34:48;;;;;;;4.30;4.00;;;;;;;1.65;85.58;99937.88;5073357;28;20294;-68
2022/01/29 03:37:15;;;;;;;5.93;3.97;;;;;;;1.66;85.47;99947.16;5073253;28;20196;-68
2022/01/29 03:39:43;;;;;;;4.73;4.37;;;;;;;1.63;85.66;99949.66;5073066;28;20263;-68
2022/01/29 03:42:12;;;;;;;4.63;4.23;;;;;;;1.54;85.79;99949.53;5073440;28;20208;-67
2022/01/29 03:44:39;;;;;;;4.27;3.97;;;;;;;1.54;85.65;99941.94;5073422;28;20228;-68
2022/01/29 03:47:06;;;;;;;5.03;4.63;;;;;;;1.49;85.88;99943.53;5072159;28;20664;-67
2022/01/29 03:49:35;;;;;;;4.10;3.87;;;;;;;1.44;86.16;99937.59;5073701;28;20818;-67
2022/01/29 03:52:01;;;;;;;4.90;4.50;;;;;;;1.44;86.41;99943.50;5073557;28;20207;-67
2022/01/29 03:54:28;;;;;;;5.20;4.77;;;;;;;1.44;86.27;99940.09;5072573;28;20204;-67
2022/01/29 03:56:55;;;;;;;5.00;4.00;;;;;;;1.42;86.50;99942.59;5072033;28;20325;-67
2022/01/29 03:59:22;;;;;;;5.20;4.57;;;;;;;1.36;86.98;99946.72;5072616;28;20258;-67
2022/01/29 04:01:49;;;;;;;5.20;4.73;;;;;;;1.34;87.07;99953.41;5073135;28;20219;-67
2022/01/29 04:04:16;;;;;;;6.10;4.50;;;;;;;1.31;87.43;99949.19;5073245;28;20204;-67
2022/01/29 04:06:44;;;;;;;5.93;4.37;;;;;;;1.04;88.02;99904.13;5071404;28;20576;-67
2022/01/29 04:09:12;;;;;;;4.97;4.57;;;;;;;1.27;88.50;99946.56;5072984;28;20657;-67
2022/01/29 04:11:39;;;;;;;5.60;4.90;;;;;;;1.29;89.35;99950.00;5072424;28;20261;-68
2022/01/29 04:14:14;;;;;;;4.97;4.67;;;;;;;1.25;89.80;99938.13;5072712;28;20196;-67
2022/01/29 04:16:41;;;;;;;5.03;4.67;;;;;;;1.14;90.53;99925.34;5072974;28;20191;-67
2022/01/29 04:19:08;;;;;;;5.07;4.60;;;;;;;1.31;90.99;99955.91;5072186;28;20192;-68
2022/01/29 04:21:35;;;;;;;6.70;5.00;;;;;;;1.31;91.03;99950.84;5072915;28;20552;-68
2022/01/29 04:24:04;;;;;;;5.70;5.33;;;;;;;1.29;91.37;99944.94;5072371;28;20224;-67
2022/01/29 04:26:34;;;;;;;4.93;4.60;;;;;;;1.21;92.66;99937.22;5070141;28;20204;-67
2022/01/29 04:29:02;;;;;;;5.20;4.80;;;;;;;1.27;92.95;99951.63;5072613;28;20521;-67
2022/01/29 04:31:37;;;;;;;5.13;4.73;;;;;;;1.21;93.67;99942.28;5072730;28;20204;-67
2022/01/29 04:34:04;;;;;;;5.20;4.80;;;;;;;1.16;93.82;99938.00;5072375;28;20200;-67
2022/01/29 04:36:31;;;;;;;5.23;4.83;;;;;;;1.21;94.41;99952.38;5071385;28;20659;-67
2022/01/29 04:38:58;;;;;;;6.33;4.90;;;;;;;1.20;94.32;99944.78;5072327;28;20734;-67
2022/01/29 04:41:26;;;;;;;5.73;5.23;;;;;;;1.26;93.97;99967.63;5072556;28;20744;-67
2022/01/29 04:43:53;;;;;;;4.73;4.43;;;;;;;1.28;93.43;99963.44;5070853;28;20222;-67
2022/01/29 04:46:20;;;;;;;6.40;5.50;;;;;;;1.29;93.12;99970.19;5071875;28;20279;-67
2022/01/29 04:48:47;;;;;;;6.53;5.67;;;;;;;1.30;92.61;99981.97;5071441;28;20200;-68
2022/01/29 04:51:14;;;;;;;11.33;6.73;;;;;;;1.31;92.17;99984.53;5070919;28;20200;-67
2022/01/29 04:53:41;;;;;;;6.10;5.57;;;;;;;1.38;92.01;99995.59;5071551;28;20200;-68
2022/01/29 04:56:08;;;;;;;5.30;4.97;;;;;;;1.43;91.56;99989.78;5070989;28;20203;-67
2022/01/29 04:58:37;;;;;;;4.07;3.87;;;;;;;1.46;91.78;99988.97;5071782;28;20250;-67
2022/01/29 05:01:05;;;;;;;5.27;4.97;;;;;;;1.50;91.87;99978.94;5072130;28;20627;-68
2022/01/29 05:03:32;;;;;;;7.13;6.53;;;;;;;1.66;91.33;99980.03;5071875;28;20220;-67
2022/01/29 05:05:59;;;;;;;8.17;7.20;;;;;;;1.62;90.71;99968.16;5071839;28;20200;-67
2022/01/29 05:08:26;;;;;;;7.07;6.37;;;;;;;1.73;90.50;99975.91;5071436;28;20708;-67
2022/01/29 05:10:54;;;;;;;5.27;4.97;;;;;;;1.71;90.10;99970.84;5069508;28;20549;-68
2022/01/29 05:13:25;;;;;;;4.93;4.53;;;;;;;1.67;89.80;99974.16;5071928;28;20262;-68
2022/01/29 05:16:14;;;;;;;5.10;4.80;;;;;;;1.47;89.92;99953.63;5070850;28;20196;-67
2022/01/29 05:26:56;;;;;;;4.70;4.30;;;;;;;1.45;93.08;99967.09;5071891;28;20195;-67
2022/01/29 05:29:26;;;;;;;4.57;4.23;;;;;;;1.48;93.33;99967.13;5071901;28;20196;-67
2022/01/29 05:31:55;;;;;;;4.50;4.13;;;;;;;1.51;93.58;99964.66;5071564;28;20196;-67
2022/01/29 05:34:22;;;;;;;4.40;4.10;;;;;;;1.54;93.66;99967.22;5071374;28;20294;-67
2022/01/29 05:36:50;;;;;;;5.03;4.53;;;;;;;1.54;93.98;99975.66;5069087;28;20215;-67
2022/01/29 05:39:17;;;;;;;4.77;4.47;;;;;;;1.56;94.03;99981.56;5071194;28;20317;-67
2022/01/29 05:41:44;;;;;;;6.10;5.23;;;;;;;1.57;93.96;99992.53;5070943;28;20665;-67
2022/01/29 05:44:11;;;;;;;5.30;4.87;;;;;;;1.54;94.07;99998.38;5071339;28;20588;-67
2022/01/29 05:46:39;;;;;;;5.07;4.20;;;;;;;1.45;93.55;99975.50;5070456;28;20641;-67
2022/01/29 05:49:07;;;;;;;4.57;4.27;;;;;;;1.59;93.48;99996.78;5070989;28;20212;-67
2022/01/29 05:51:34;;;;;;;5.93;5.43;;;;;;;1.53;93.01;99985.72;5070016;28;20307;-68
2022/01/29 05:54:02;;;;;;;5.73;5.27;;;;;;;1.66;92.50;100006.97;5071015;28;20195;-68
2022/01/29 05:56:30;;;;;;;5.67;5.37;;;;;;;1.69;92.42;100002.81;5070934;28;20648;-67
2022/01/29 05:58:58;;;;;;;5.60;5.20;;;;;;;1.69;92.71;100012.06;5070851;28;20561;-68
2022/01/29 06:01:25;;;;;;;5.33;4.83;;;;;;;1.73;92.30;100016.34;5070233;28;20212;-68
2022/01/29 06:03:52;;;;;;;4.63;4.33;;;;;;;1.79;92.13;100009.69;5070528;28;20235;-67
2022/01/29 06:06:20;;;;;;;5.03;4.63;;;;;;;1.82;92.15;100019.84;5068194;28;20751;-68
2022/01/29 06:08:47;;;;;;;5.73;5.33;;;;;;;1.88;92.03;100024.13;5070551;28;20572;-68
2022/01/29 06:11:14;;;;;;;9.27;5.50;;;;;;;1.93;91.98;100033.50;5069186;28;20199;-68
2022/01/29 06:13:41;;;;;;;6.60;6.17;;;;;;;1.99;91.35;100036.13;5068190;28;20298;-68
2022/01/29 06:16:08;;;;;;;7.00;5.53;;;;;;;2.03;91.41;100040.41;5070179;28;20286;-68
2022/01/29 06:18:35;;;;;;;7.03;6.33;;;;;;;2.09;91.22;100045.56;5065491;28;20207;-68
2022/01/29 06:21:04;;;;;;;5.63;5.23;;;;;;;2.13;90.57;100047.25;5065208;28;20208;-68
2022/01/29 06:23:34;;;;;;;5.90;5.40;;;;;;;2.18;89.64;100051.53;5070577;28;21835;-67
2022/01/29 06:26:03;;;;;;;6.30;5.00;;;;;;;2.21;88.91;100051.59;5069908;28;20230;-67
2022/01/29 06:28:30;;;;;;;6.37;5.47;;;;;;;2.25;88.00;100053.34;5070592;28;20286;-67
2022/01/29 06:30:57;;;;;;;6.43;5.50;;;;;;;2.33;87.44;100061.84;5070359;28;20283;-67
2022/01/29 06:33:24;;;;;;;7.37;5.03;;;;;;;2.38;86.59;100062.78;5070407;28;20283;-67
2022/01/29 06:35:51;;;;;;;6.07;5.47;;;;;;;2.40;86.53;100056.91;5070035;28;20283;-67
2022/01/29 06:38:18;;;;;;;9.20;5.73;;;;;;;2.46;85.50;100061.19;5069584;28;20192;-67
2022/01/29 06:40:46;;;;;;;6.20;5.70;;;;;;;2.50;85.27;100062.94;5069628;28;20200;-67
2022/01/29 06:43:14;;;;;;;6.50;5.90;;;;;;;2.60;85.23;100062.22;5069842;28;20778;-67
2022/01/29 06:45:44;;;;;;;7.00;6.40;;;;;;;2.68;84.95;100062.34;5069491;28;20250;-67
2022/01/29 06:48:12;;;;;;;8.40;6.33;;;;;;;2.79;84.68;100060.75;5073015;28;20210;-67
2022/01/29 06:50:39;;;;;;;7.70;6.20;;;;;;;2.87;83.70;100075.22;5073942;28;20299;-67
2022/01/29 06:53:08;;;;;;;9.20;7.00;;;;;;;2.94;83.07;100076.16;5074124;28;20218;-68
2022/01/29 06:55:35;;;;;;;5.53;5.17;;;;;;;3.01;82.82;100078.75;5074381;28;20287;-67
2022/01/29 06:58:04;;;;;;;6.77;6.07;;;;;;;3.13;82.19;100083.09;5073205;28;20202;-67
2022/01/29 07:00:31;;;;;;;6.60;6.10;;;;;;;3.18;81.91;100086.53;5073590;28;20294;-68
2022/01/29 07:02:58;;;;;;;6.77;6.07;;;;;;;3.28;81.64;100082.41;5073468;28;20600;-67
2022/01/29 07:05:25;;;;;;;6.37;5.87;;;;;;;3.34;81.08;100077.38;5074188;28;20206;-67
2022/01/29 07:07:52;;;;;;;9.17;6.40;;;;;;;3.33;80.75;100076.53;5074116;28;20290;-67
2022/01/29 07:10:19;;;;;;;11.57;7.03;;;;;;;3.43;80.90;100077.47;5072314;28;20196;-67
2022/01/29 07:12:46;;;;;;;7.00;6.30;;;;;;;3.48;81.36;100076.69;5073903;28;20287;-67
2022/01/29 07:15:14;;;;;;;10.27;5.23;;;;;;;3.53;81.51;100076.72;5074289;28;20282;-67
2022/01/29 07:17:41;;;;;;;6.63;5.27;;;;;;;3.59;81.66;100079.31;5074102;28;20219;-67
2022/01/29 07:20:09;;;;;;;6.00;5.20;;;;;;;3.64;82.11;100077.69;5074012;28;20287;-67
2022/01/29 07:22:36;;;;;;;5.33;5.00;;;;;;;3.69;82.24;100073.47;5073036;28;20261;-67
2022/01/29 07:25:03;;;;;;;5.47;4.97;;;;;;;3.74;82.52;100069.31;5073582;28;20283;-67
2022/01/29 07:27:30;;;;;;;7.63;5.13;;;;;;;3.85;82.10;100077.84;5073719;28;20286;-67
2022/01/29 07:29:57;;;;;;;6.10;5.60;;;;;;;3.90;82.46;100076.19;5072548;28;20294;-67
2022/01/29 07:32:26;;;;;;;6.07;5.53;;;;;;;4.00;82.17;100088.13;5073148;28;20625;-67
2022/01/29 07:34:53;;;;;;;13.43;5.63;;;;;;;4.12;81.75;100087.34;5073636;28;20294;-67
2022/01/29 07:37:19;;;;;;;5.77;5.30;;;;;;;4.16;81.03;100084.84;5073361;28;20200;-67
2022/01/29 07:39:46;;;;;;;5.33;4.83;;;;;;;4.17;80.84;100086.50;5073644;28;20192;-66
2022/01/29 07:42:13;;;;;;;6.23;5.63;;;;;;;4.26;80.53;100087.44;5072806;28;20266;-67
2022/01/29 07:44:40;;;;;;;8.70;5.47;;;;;;;4.32;80.91;100095.06;5071790;28;20374;-67
2022/01/29 07:47:08;;;;;;;5.87;5.37;;;;;;;4.40;80.61;100090.88;5071540;28;20561;-67
2022/01/29 07:49:36;;;;;;;5.20;4.80;;;;;;;4.37;80.49;100088.31;5068843;28;20655;-67
2022/01/29 07:52:04;;;;;;;6.43;5.87;;;;;;;4.50;80.25;100093.47;5072670;28;20675;-67
2022/01/29 07:54:30;;;;;;;5.33;5.03;;;;;;;4.49;79.82;100088.41;5072646;28;20584;-67
2022/01/29 07:56:57;;;;;;;8.77;5.27;;;;;;;4.58;79.28;100096.06;5069183;28;20211;-67
2022/01/29 07:59:24;;;;;;;6.77;5.30;;;;;;;4.63;79.32;100096.94;5072063;28;20207;-67
2022/01/29 08:01:51;;;;;;;5.03;4.70;;;;;;;4.71;79.05;100101.22;5071912;28;20200;-67
2022/01/29 08:04:19;;;;;;;6.17;5.63;;;;;;;4.75;79.55;100102.06;5068997;28;20236;-67
2022/01/29 08:06:48;;;;;;;6.77;6.13;;;;;;;4.81;79.01;100104.66;5070884;28;20229;-68
2022/01/29 08:09:15;;;;;;;6.40;6.00;;;;;;;4.92;78.94;100108.06;5071341;28;20556;-67
2022/01/29 08:11:42;;;;;;;5.33;5.03;;;;;;;5.14;78.87;100107.28;5070441;28;20203;-67
2022/01/29 08:14:09;;;;;;;4.67;4.40;;;;;;;5.41;78.21;100105.66;5072329;28;20595;-75
2022/01/29 08:16:36;;;;;;;6.63;6.13;;;;;;;5.73;77.50;100109.09;5067678;28;20794;-67
2022/01/29 08:19:03;;;;;;;5.90;5.60;;;;;;;6.04;75.64;100113.34;5065046;28;20286;-67
2022/01/29 08:21:30;;;;;;;6.00;5.60;;;;;;;6.22;74.30;100110.81;5069688;28;20640;-67
2022/01/29 08:23:58;;;;;;;6.60;5.50;;;;;;;6.44;73.20;100109.06;5069056;28;20219;-67
2022/01/29 08:26:25;;;;;;;5.47;5.17;;;;;;;6.54;72.61;100107.34;5068343;28;20204;-66
2022/01/29 08:28:52;;;;;;;5.87;5.47;;;;;;;6.68;72.16;100121.75;5069661;28;20262;-67
2022/01/29 08:31:19;;;;;;;6.25;5.75;;;;;;;6.80;71.63;100113.22;5070207;28;20518;-65
2022/01/29 08:33:46;;;;;;;5.30;4.73;;;;;;;6.95;71.43;100105.50;5068991;28;20196;-65
2022/01/29 08:36:13;;;;;;;5.90;5.47;;;;;;;7.18;69.65;100111.34;5070590;28;20636;-65
2022/01/29 08:38:39;;;;;;;5.27;4.97;;;;;;;7.26;70.77;100126.63;5069536;28;20196;-65
2022/01/29 08:41:08;;;;;;;5.03;4.53;;;;;;;7.24;69.95;100129.16;5071985;28;20201;-65
2022/01/29 08:43:35;;;;;;;4.87;4.37;;;;;;;7.32;69.10;100132.53;5069572;28;20355;-65
2022/01/29 08:46:02;;;;;;;5.40;5.07;;;;;;;7.38;69.16;100132.50;5072410;28;20712;-65
2022/01/29 08:48:29;;;;;;;4.57;4.27;;;;;;;7.49;69.26;100129.03;5071303;28;20204;-65
2022/01/29 08:50:56;;;;;;;4.90;4.50;;;;;;;7.63;68.82;100132.31;5069077;28;20628;-65
2022/01/29 08:53:23;;;;;;;4.60;4.30;;;;;;;7.68;67.66;100136.56;5071874;28;20664;-66
2022/01/29 08:55:49;;;;;;;5.87;5.37;;;;;;;7.81;67.17;100138.19;5070174;28;20291;-65
2022/01/29 08:58:18;;;;;;;5.00;4.70;;;;;;;8.00;65.62;100138.88;5072277;28;20743;-65
2022/01/29 09:00:47;;;;;;;4.47;4.27;;;;;;;8.12;65.37;100141.31;5071525;28;20208;-66
2022/01/29 09:03:16;;;;;;;4.93;4.53;;;;;;;8.11;64.86;100141.34;5071461;28;20322;-65
2022/01/29 09:05:44;;;;;;;4.87;4.57;;;;;;;8.17;66.40;100152.38;5072612;28;20235;-65
2022/01/29 09:08:12;;;;;;;4.83;4.60;;;;;;;8.21;65.03;100138.69;5072070;28;20220;-65
2022/01/29 09:10:39;;;;;;;4.77;4.37;;;;;;;8.29;65.05;100147.16;5071323;28;20196;-64
2022/01/29 09:13:06;;;;;;;4.27;4.03;;;;;;;8.38;64.86;100141.97;5071943;28;20287;-66
2022/01/29 09:15:35;;;;;;;6.00;4.33;;;;;;;8.33;64.50;100143.72;5072108;28;20588;-65
2022/01/29 09:18:02;;;;;;;10.60;5.00;;;;;;;8.44;63.93;100147.00;5071745;28;20202;-65
2022/01/29 09:20:30;;;;;;;4.13;3.83;;;;;;;8.54;63.80;100146.91;5072064;28;20196;-65
2022/01/29 09:22:56;;;;;;;4.17;3.90;;;;;;;8.53;63.49;100140.13;5071963;28;20755;-65
2022/01/29 09:25:25;;;;;;;6.50;4.60;;;;;;;8.49;63.38;100135.91;5072066;28;20406;-65
2022/01/29 09:27:52;;;;;;;4.43;4.20;;;;;;;8.48;63.99;100112.06;5072189;28;20668;-65
2022/01/29 09:30:19;;;;;;;4.30;4.00;;;;;;;8.58;64.34;100130.69;5071663;28;20623;-64
2022/01/29 09:32:47;;;;;;;4.07;3.87;;;;;;;8.64;62.81;100128.06;5071811;28;20755;-65
2022/01/29 09:35:15;;;;;;;4.40;4.20;;;;;;;8.86;63.51;100124.41;5071509;28;20720;-65
2022/01/29 09:37:42;;;;;;;8.17;4.20;;;;;;;9.03;62.23;100127.63;5070650;28;20196;-65
2022/01/29 09:40:10;;;;;;;3.33;3.13;;;;;;;9.09;61.95;100127.53;5071166;28;20218;-64
2022/01/29 09:42:39;;;;;;;4.10;3.83;;;;;;;9.09;60.44;100122.44;5069687;28;20200;-65
2022/01/29 09:45:07;;;;;;;4.40;4.10;;;;;;;9.08;60.48;100125.03;5070118;28;20650;-65
2022/01/29 09:47:36;;;;;;;3.87;3.67;;;;;;;9.07;61.35;100119.06;5071227;28;20291;-65
2022/01/29 09:50:05;;;;;;;4.37;4.07;;;;;;;9.19;61.56;100118.88;5071451;28;20727;-66
2022/01/29 09:52:32;;;;;;;4.17;3.67;;;;;;;9.25;60.59;100121.38;5071498;28;20279;-65
2022/01/29 09:54:59;;;;;;;4.17;3.73;;;;;;;9.19;59.43;100126.56;5071511;28;20199;-65
2022/01/29 09:57:26;;;;;;;3.93;3.73;;;;;;;9.11;58.28;100110.47;5071047;28;20188;-65
2022/01/29 09:59:53;;;;;;;3.23;3.03;;;;;;;9.15;57.53;100117.22;5067876;28;20262;-65
2022/01/29 10:02:22;;;;;;;3.70;3.37;;;;;;;9.12;58.28;100112.16;5070959;28;20278;-65
2022/01/29 10:04:50;;;;;;;4.00;3.73;;;;;;;9.12;58.58;100116.41;5071118;28;20212;-65
2022/01/29 10:07:20;;;;;;;4.60;4.27;;;;;;;9.12;58.80;100112.16;5071068;28;20199;-65
2022/01/29 10:09:48;;;;;;;4.50;4.20;;;;;;;9.02;59.67;100115.69;5070000;28;20191;-65
2022/01/29 10:12:24;;;;;;;4.87;4.07;;;;;;;8.94;58.68;100122.63;5070985;28;20203;-65
2022/01/29 10:14:57;;;;;;;3.60;3.40;;;;;;;8.84;58.06;100121.91;5071354;28;20187;-65
2022/01/29 10:17:46;;;;;;;5.30;5.00;;;;;;;8.79;57.82;100122.78;5070964;28;20222;-65
2022/01/29 10:20:19;;;;;;;4.30;4.00;;;;;;;8.89;60.28;100114.16;5071208;28;20291;-65
2022/01/29 10:22:49;;;;;;;5.77;3.60;;;;;;;9.05;58.77;100115.66;5070358;28;20572;-65
2022/01/29 10:25:18;;;;;;;3.87;3.63;;;;;;;9.09;59.37;100112.19;5070191;28;20223;-66
2022/01/29 10:28:07;;;;;;;4.43;3.77;;;;;;;9.30;57.90;100117.06;5070826;28;20378;-65
2022/01/29 10:30:36;;;;;;;4.00;3.70;;;;;;;9.37;57.39;100116.06;5070663;28;20686;-65
2022/01/29 10:33:25;;;;;;;3.77;3.57;;;;;;;9.43;57.94;100123.66;5070782;28;20287;-65
2022/01/29 10:35:54;;;;;;;3.00;2.80;;;;;;;9.41;55.84;100115.16;5065321;28;20218;-65
2022/01/29 10:38:24;;;;;;;3.90;3.60;;;;;;;9.47;57.78;100099.72;5070420;28;20599;-65
2022/01/29 10:41:22;;;;;;;3.33;3.23;;;;;;;9.71;57.69;100102.78;5069878;28;20286;-65
2022/01/29 10:44:10;;;;;;;3.27;3.10;;;;;;;9.82;55.47;100099.19;5070446;28;20224;-65
2022/01/29 10:46:39;;;;;;;4.20;3.57;;;;;;;9.80;55.22;100103.50;5070698;28;20648;-65
2022/01/29 10:49:07;;;;;;;3.60;3.40;;;;;;;9.79;54.99;100103.53;5070693;28;20196;-65
2022/01/29 10:51:35;;;;;;;3.10;2.90;;;;;;;9.78;55.23;100101.84;5070926;28;20227;-65
2022/01/29 10:54:21;;;;;;;13.27;3.37;;;;;;;9.95;55.40;100107.53;5070205;28;20683;-65
2022/01/29 10:56:52;;;;;;;3.50;3.30;;;;;;;10.12;54.92;100099.53;5070385;28;20207;-65
2022/01/29 10:59:20;;;;;;;3.07;2.70;;;;;;;10.28;55.49;100091.59;5070608;28;20287;-65
2022/01/29 11:01:54;;;;;;;3.17;3.07;;;;;;;10.22;54.55;100081.47;5070252;28;20200;-65
2022/01/29 11:04:22;;;;;;;3.77;3.27;;;;;;;10.41;54.88;100097.34;5070206;28;20702;-65
2022/01/29 11:06:52;;;;;;;3.03;2.93;;;;;;;10.38;53.53;100098.25;5070230;28;20250;-65
2022/01/29 11:09:22;;;;;;;5.10;3.10;;;;;;;10.54;55.06;100098.81;5070757;28;20707;-65
2022/01/29 11:11:52;;;;;;;2.83;2.70;;;;;;;10.69;53.72;100093.41;5070350;28;20286;-65
2022/01/29 11:14:21;;;;;;;2.83;2.73;;;;;;;10.72;53.69;100092.50;5070598;28;20575;-65
2022/01/29 11:16:50;;;;;;;3.50;3.30;;;;;;;10.73;52.60;100091.59;5070173;28;20683;-65
2022/01/29 11:19:17;;;;;;;3.00;2.90;;;;;;;10.69;51.38;100095.13;5070230;28;20298;-65
2022/01/29 11:21:46;;;;;;;3.27;3.07;;;;;;;10.74;53.34;100085.59;5070298;28;20245;-65
2022/01/29 11:24:19;;;;;;;2.83;2.73;;;;;;;10.89;52.67;100085.28;5070327;28;20216;-65
2022/01/29 11:26:49;;;;;;;3.20;3.03;;;;;;;10.83;52.94;100085.41;5070179;28;20211;-65
2022/01/29 11:29:33;;;;;;;3.03;2.93;;;;;;;10.79;52.30;100082.06;5070232;28;20196;-65
2022/01/29 11:32:27;;;;;;;3.13;3.03;;;;;;;10.67;53.01;100081.47;5070361;28;20287;-65
2022/01/29 11:35:11;;;;;;;3.23;3.03;;;;;;;10.62;54.16;100070.47;5070092;28;20236;-64
2022/01/29 11:37:49;;;;;;;5.33;4.93;;;;;;;10.64;54.28;100058.44;5068962;28;20746;-66
2022/01/29 11:40:25;;;;;;;6.17;3.80;;;;;;;10.74;51.96;100075.34;5073682;28;20583;-65
2022/01/29 11:43:05;;;;;;;3.20;3.03;;;;;;;10.65;50.00;100065.28;5073836;28;20242;-68
2022/01/29 11:45:42;;;;;;;3.63;3.43;;;;;;;10.57;50.45;100078.25;5073853;28;20238;-69
2022/01/29 11:48:24;;;;;;;3.10;2.90;;;;;;;10.56;50.93;100080.84;5073390;28;20674;-68
2022/01/29 11:50:53;;;;;;;3.43;3.13;;;;;;;10.45;50.73;100070.78;5073343;28;20279;-68